Time;durP1;ratioP1;P1;durP2;ratioP2;P2;SDS_P1;SDS_P2;PMS_P1;PMS_P2;Temp;Humidity;BMP_temperature;BMP_pressure;BME280_temperature;BME280_humidity;BME280_pressure;Samples;Min_cycle;Max_cycle;Signal;HPM_P1;HPM_P2
2023/01/13 00:00:03;;;;;;;;;;;7.70;99.90;8.00;100018.00;;;;341743;28;86894;-89
2023/01/13 00:00:15;;;;;;;;;;;7.70;99.90;8.00;100016.00;;;;341629;28;87176;-88
2023/01/13 00:00:29;;;;;;;;;;;7.60;99.90;8.00;100015.00;;;;341544;28;87105;-89
2023/01/13 00:00:40;;;;;;;;;;;7.60;99.90;7.90;100008.00;;;;343189;28;88735;-89
2023/01/13 00:00:52;;;;;;;;;;;7.60;99.90;7.90;100013.00;;;;343119;28;86110;-89
2023/01/13 00:01:11;;;;;;;;;;;7.60;99.90;7.90;100014.00;;;;343255;28;86997;-89
2023/01/13 00:01:24;;;;;;;;;;;7.60;99.90;7.90;100016.00;;;;344172;28;88352;-89
2023/01/13 00:01:37;;;;;;;;;;;7.60;99.90;7.90;100014.00;;;;344600;28;88713;-89
2023/01/13 00:01:49;;;;;;;;;;;7.60;99.90;7.90;100026.00;;;;342901;28;86825;-89
2023/01/13 00:02:00;;;;;;;;;;;7.60;99.90;7.90;100024.00;;;;344687;28;87024;-89
2023/01/13 00:02:12;;;;;;;;;;;7.60;99.90;7.90;100016.00;;;;343028;28;86858;-89
2023/01/13 00:02:24;;;;;;;;;;;7.60;99.90;7.90;100009.00;;;;343083;28;89591;-89
2023/01/13 00:02:36;;;;;;;;;;;7.60;99.90;7.90;100014.00;;;;345582;28;87028;-89
2023/01/13 00:02:48;;;;;;;;;;;7.60;99.90;7.90;100011.00;;;;343264;28;89577;-89
2023/01/13 00:03:00;;;;;;;;;;;7.60;99.90;7.90;100016.00;;;;340400;28;86166;-89
2023/01/13 00:03:12;;;;;;;;;;;7.60;99.90;7.90;100026.00;;;;343039;28;90336;-89
2023/01/13 00:03:23;;;;;;;;;;;7.60;99.90;7.90;100014.00;;;;343114;28;86035;-89
2023/01/13 00:03:35;;;;;;;;;;;7.50;99.90;7.90;100020.00;;;;341601;28;90016;-88
2023/01/13 00:03:47;;;;;;;;;;;7.60;99.90;7.90;100014.00;;;;343090;28;86144;-89
2023/01/13 00:04:00;;;;;;;;;;;7.50;99.90;7.90;100018.00;;;;343038;28;91051;-89
2023/01/13 00:04:11;;;;;;;;;;;7.50;99.90;7.90;100014.00;;;;341613;28;87804;-89
2023/01/13 00:04:23;;;;;;;;;;;7.50;99.90;7.90;100015.00;;;;342936;28;89178;-89
2023/01/13 00:04:35;;;;;;;;;;;7.60;99.90;7.90;100021.00;;;;341687;28;86853;-89
2023/01/13 00:04:47;;;;;;;;;;;7.60;99.90;7.90;100021.00;;;;340372;28;90875;-89
2023/01/13 00:04:59;;;;;;;;;;;7.50;99.90;7.90;100014.00;;;;340354;28;86056;-89
2023/01/13 00:05:11;;;;;;;;;;;7.50;99.90;7.90;100013.00;;;;340449;28;85769;-89
2023/01/13 00:05:24;;;;;;;;;;;7.50;99.90;7.90;100014.00;;;;341652;28;87076;-89
2023/01/13 00:05:36;;;;;;;;;;;7.50;99.90;8.00;100011.00;;;;342012;28;87327;-89
2023/01/13 00:05:48;;;;;;;;;;;7.50;99.90;8.00;100014.00;;;;341730;28;86652;-89
2023/01/13 00:06:00;;;;;;;;;;;7.50;99.90;7.90;100007.00;;;;344784;28;89605;-88
2023/01/13 00:06:24;;;;;;;;;;;7.50;99.90;8.00;100009.00;;;;344490;28;87012;-89
2023/01/13 00:06:36;;;;;;;;;;;7.50;99.90;8.00;100003.00;;;;341793;28;91211;-89
2023/01/13 00:06:48;;;;;;;;;;;7.50;99.90;8.00;100007.00;;;;341416;28;86176;-89
2023/01/13 00:07:00;;;;;;;;;;;7.50;99.90;8.00;100002.00;;;;341708;28;90750;-89
2023/01/13 00:07:11;;;;;;;;;;;7.50;99.90;8.00;100007.00;;;;341717;28;86239;-89
2023/01/13 00:07:24;;;;;;;;;;;7.50;99.90;8.00;100008.00;;;;340707;28;87442;-89
2023/01/13 00:07:37;;;;;;;;;;;7.50;99.90;8.00;100009.00;;;;340517;28;85978;-89
2023/01/13 00:07:49;;;;;;;;;;;7.50;99.90;8.00;100014.00;;;;342070;28;87140;-89
2023/01/13 00:08:03;;;;;;;;;;;7.50;99.90;8.00;100012.00;;;;343208;28;86045;-89
2023/01/13 00:08:15;;;;;;;;;;;7.50;99.90;7.90;100011.00;;;;343400;28;88340;-89
2023/01/13 00:08:27;;;;;;;;;;;7.50;99.90;7.90;100004.00;;;;341609;28;87101;-89
2023/01/13 00:08:39;;;;;;;;;;;7.50;99.90;8.00;100000.00;;;;344586;28;90812;-89
2023/01/13 00:08:51;;;;;;;;;;;7.50;99.90;8.00;100011.00;;;;341644;28;87033;-89
2023/01/13 00:09:03;;;;;;;;;;;7.50;99.90;8.00;100000.00;;;;343257;28;88305;-89
2023/01/13 00:09:14;;;;;;;;;;;7.50;99.90;8.00;100007.00;;;;341637;28;86340;-89
2023/01/13 00:09:26;;;;;;;;;;;7.50;99.90;8.00;100010.00;;;;344254;28;90241;-90
2023/01/13 00:09:38;;;;;;;;;;;7.50;99.90;8.00;100000.00;;;;341717;28;86809;-89
2023/01/13 00:09:50;;;;;;;;;;;7.50;99.90;8.00;100010.00;;;;341706;28;88440;-89
2023/01/13 00:10:01;;;;;;;;;;;7.50;99.90;8.00;100002.00;;;;340446;28;86170;-90
2023/01/13 00:10:13;;;;;;;;;;;7.50;99.90;8.00;100009.00;;;;340545;28;90087;-89
2023/01/13 00:10:25;;;;;;;;;;;7.50;99.90;7.90;100009.00;;;;341332;28;87078;-89
2023/01/13 00:10:37;;;;;;;;;;;7.50;99.90;7.90;100007.00;;;;341841;28;90866;-90
2023/01/13 00:10:48;;;;;;;;;;;7.50;99.90;7.90;100012.00;;;;342954;28;88267;-89
2023/01/13 00:11:00;;;;;;;;;;;7.50;99.90;7.90;100006.00;;;;344338;28;90638;-89
2023/01/13 00:11:12;;;;;;;;;;;7.50;99.90;7.90;100010.00;;;;340307;28;89088;-89
2023/01/13 00:11:25;;;;;;;;;;;7.50;99.90;7.90;100004.00;;;;341971;28;87837;-89
2023/01/13 00:11:37;;;;;;;;;;;7.50;99.90;7.90;100011.00;;;;343018;28;86654;-88
2023/01/13 00:11:48;;;;;;;;;;;7.50;99.90;7.90;100015.00;;;;340457;28;88082;-89
2023/01/13 00:12:00;;;;;;;;;;;7.50;99.90;7.90;100012.00;;;;344159;28;86925;-89
2023/01/13 00:12:12;;;;;;;;;;;7.50;99.90;7.90;100007.00;;;;343390;28;87168;-90
2023/01/13 00:12:23;;;;;;;;;;;7.50;99.90;7.90;100006.00;;;;342725;28;87156;-89
2023/01/13 00:12:39;;;;;;;;;;;7.50;99.90;7.90;100006.00;;;;340670;28;87122;-89
2023/01/13 00:12:52;;;;;;;;;;;7.50;99.90;7.90;100004.00;;;;341720;28;86134;-89
2023/01/13 00:13:04;;;;;;;;;;;7.50;99.90;8.00;100012.00;;;;344382;28;90594;-89
2023/01/13 00:13:15;;;;;;;;;;;7.50;99.90;8.00;100007.00;;;;343108;28;86901;-89
2023/01/13 00:13:27;;;;;;;;;;;7.50;99.90;8.00;100000.00;;;;343099;28;90316;-89
2023/01/13 00:13:39;;;;;;;;;;;7.50;99.90;7.90;100004.00;;;;341617;28;87125;-89
2023/01/13 00:13:51;;;;;;;;;;;7.50;99.90;7.90;100015.00;;;;345886;28;91070;-89
2023/01/13 00:14:03;;;;;;;;;;;7.50;99.90;7.90;100011.00;;;;340256;28;87041;-89
2023/01/13 00:14:15;;;;;;;;;;;7.50;99.90;8.00;100010.00;;;;340683;28;88669;-89
2023/01/13 00:14:29;;;;;;;;;;;7.50;99.90;8.00;100004.00;;;;341560;28;87014;-89
2023/01/13 00:14:40;;;;;;;;;;;7.50;99.90;8.10;100004.00;;;;341894;28;89766;-89
2023/01/13 00:14:52;;;;;;;;;;;7.50;99.90;8.10;100000.00;;;;340000;28;87019;-89
2023/01/13 00:15:05;;;;;;;;;;;7.50;99.90;8.00;100008.00;;;;340483;28;88447;-89
2023/01/13 00:15:16;;;;;;;;;;;7.50;99.90;8.00;100002.00;;;;339994;28;85779;-89
2023/01/13 00:15:28;;;;;;;;;;;7.50;99.90;8.00;100006.00;;;;340721;28;89130;-89
2023/01/13 00:15:40;;;;;;;;;;;7.50;99.90;8.00;100008.00;;;;343015;28;87035;-89
2023/01/13 00:15:59;;;;;;;;;;;7.50;99.90;8.10;100003.00;;;;344412;28;90728;-89
2023/01/13 00:16:14;;;;;;;;;;;7.50;99.90;8.10;100007.00;;;;344355;28;86969;-89
2023/01/13 00:16:26;;;;;;;;;;;7.50;99.90;8.10;99997.00;;;;343261;28;88579;-88
2023/01/13 00:16:37;;;;;;;;;;;7.50;99.90;8.20;99999.00;;;;341614;28;88704;-89
2023/01/13 00:16:49;;;;;;;;;;;7.50;99.90;8.20;99996.00;;;;343110;28;89561;-88
2023/01/13 00:17:04;;;;;;;;;;;7.50;99.90;8.20;99996.00;;;;341543;28;87552;-89
2023/01/13 00:17:15;;;;;;;;;;;7.50;99.90;8.20;99993.00;;;;340661;28;87806;-89
2023/01/13 00:17:27;;;;;;;;;;;7.60;99.90;8.20;99990.00;;;;340465;28;85361;-89
2023/01/13 00:17:39;;;;;;;;;;;7.60;99.90;8.20;99993.00;;;;340642;28;86170;-89
2023/01/13 00:17:51;;;;;;;;;;;7.60;99.90;8.20;99989.00;;;;340344;28;86946;-90
2023/01/13 00:18:02;;;;;;;;;;;7.60;99.90;8.20;99987.00;;;;343083;28;90675;-89
2023/01/13 00:18:14;;;;;;;;;;;7.60;99.90;8.20;99993.00;;;;342573;28;87438;-89
2023/01/13 00:18:26;;;;;;;;;;;7.60;99.90;8.20;99988.00;;;;341304;28;87878;-89
2023/01/13 00:18:38;;;;;;;;;;;7.60;99.90;8.30;99985.00;;;;341776;28;86826;-89
2023/01/13 00:18:50;;;;;;;;;;;7.60;99.90;8.30;99987.00;;;;343288;28;87833;-89
2023/01/13 00:19:02;;;;;;;;;;;7.60;99.90;8.30;99984.00;;;;341653;28;86079;-89
2023/01/13 00:19:13;;;;;;;;;;;7.60;99.90;8.20;99988.00;;;;343409;28;88116;-89
2023/01/13 00:19:25;;;;;;;;;;;7.60;99.90;8.20;99989.00;;;;341729;28;86312;-89
2023/01/13 00:19:37;;;;;;;;;;;7.60;99.90;8.20;99993.00;;;;341832;28;88054;-89
2023/01/13 00:19:49;;;;;;;;;;;7.60;99.90;8.30;99986.00;;;;341587;28;87134;-89
2023/01/13 00:20:01;;;;;;;;;;;7.60;99.90;8.40;99992.00;;;;341951;28;88163;-89
2023/01/13 00:20:13;;;;;;;;;;;7.70;99.90;8.40;99991.00;;;;341610;28;86998;-89
2023/01/13 00:20:24;;;;;;;;;;;7.70;99.90;8.40;99990.00;;;;342938;28;90629;-89
2023/01/13 00:20:36;;;;;;;;;;;7.70;99.90;8.20;100000.00;;;;342954;28;87022;-89
2023/01/13 00:21:00;;;;;;;;;;;7.70;99.90;8.20;99989.00;;;;343112;28;91271;-89
2023/01/13 00:21:18;;;;;;;;;;;7.70;99.90;8.20;99991.00;;;;341600;28;86917;-89
2023/01/13 00:21:30;;;;;;;;;;;7.70;99.90;8.30;99993.00;;;;341884;28;87326;-89
2023/01/13 00:21:42;;;;;;;;;;;7.70;99.90;8.30;99991.00;;;;342650;28;87431;-89
2023/01/13 00:21:54;;;;;;;;;;;7.70;99.90;8.30;99990.00;;;;344396;28;90113;-89
2023/01/13 00:22:06;;;;;;;;;;;7.70;99.90;8.30;99997.00;;;;341753;28;86081;-89
2023/01/13 00:22:18;;;;;;;;;;;7.70;99.90;8.30;99989.00;;;;340584;28;87463;-89
2023/01/13 00:22:33;;;;;;;;;;;7.70;99.90;8.20;99986.00;;;;344335;28;87066;-89
2023/01/13 00:22:44;;;;;;;;;;;7.70;99.90;8.30;99988.00;;;;341927;28;88748;-89
2023/01/13 00:22:58;;;;;;;;;;;7.70;99.90;8.30;99992.00;;;;341723;28;86051;-89
2023/01/13 00:23:10;;;;;;;;;;;7.70;99.90;8.30;99992.00;;;;343251;28;89337;-89
2023/01/13 00:23:23;;;;;;;;;;;7.70;99.90;8.30;99992.00;;;;341245;28;87133;-89
2023/01/13 00:23:35;;;;;;;;;;;7.70;99.90;8.20;99977.00;;;;341701;28;91570;-88
2023/01/13 00:23:47;;;;;;;;;;;7.70;99.90;8.20;99989.00;;;;343045;28;86322;-89
2023/01/13 00:23:59;;;;;;;;;;;7.70;99.90;8.20;99985.00;;;;341655;28;86983;-90
2023/01/13 00:24:11;;;;;;;;;;;7.70;99.90;8.30;99990.00;;;;341428;28;88169;-89
2023/01/13 00:24:22;;;;;;;;;;;7.70;99.90;8.30;99983.00;;;;341612;28;89848;-89
2023/01/13 00:24:34;;;;;;;;;;;7.70;99.90;8.40;99978.00;;;;345563;28;87110;-89
2023/01/13 00:24:46;;;;;;;;;;;7.70;99.90;8.40;99991.00;;;;343081;28;87306;-89
2023/01/13 00:25:00;;;;;;;;;;;7.70;99.90;8.40;99987.00;;;;341516;28;87044;-89
2023/01/13 00:25:12;;;;;;;;;;;7.70;99.90;8.40;99979.00;;;;340486;28;88305;-89
2023/01/13 00:25:24;;;;;;;;;;;7.70;99.90;8.50;99987.00;;;;341683;28;86917;-89
2023/01/13 00:25:36;;;;;;;;;;;7.70;99.90;8.30;99983.00;;;;341932;28;86981;-88
2023/01/13 00:25:48;;;;;;;;;;;7.70;99.90;8.30;99986.00;;;;341514;28;87457;-89
2023/01/13 00:26:02;;;;;;;;;;;7.80;99.90;8.30;99978.00;;;;341849;28;87011;-89
2023/01/13 00:26:18;;;;;;;;;;;7.70;99.90;8.40;99984.00;;;;342809;28;87116;-89
2023/01/13 00:26:32;;;;;;;;;;;7.80;99.90;8.50;99981.00;;;;342989;28;87803;-88
2023/01/13 00:26:44;;;;;;;;;;;7.80;99.90;8.40;99981.00;;;;339002;28;87647;-89
2023/01/13 00:26:56;;;;;;;;;;;7.80;99.90;8.40;99981.00;;;;341807;28;88943;-89
2023/01/13 00:27:08;;;;;;;;;;;7.80;99.90;8.40;99981.00;;;;344313;28;86959;-89
2023/01/13 00:27:22;;;;;;;;;;;7.80;99.90;8.30;99982.00;;;;343111;28;90580;-88
2023/01/13 00:27:34;;;;;;;;;;;7.80;99.90;8.30;99977.00;;;;341526;28;86621;-90
2023/01/13 00:27:46;;;;;;;;;;;7.80;99.90;8.30;99982.00;;;;341636;28;91124;-89
2023/01/13 00:27:57;;;;;;;;;;;7.80;99.90;8.30;99980.00;;;;341416;28;86351;-89
2023/01/13 00:28:09;;;;;;;;;;;7.80;99.90;8.30;99991.00;;;;341710;28;86508;-89
2023/01/13 00:28:21;;;;;;;;;;;7.80;99.90;8.40;99971.00;;;;341167;28;87026;-89
2023/01/13 00:28:33;;;;;;;;;;;7.80;99.90;8.40;99974.00;;;;341899;28;88112;-89
2023/01/13 00:28:45;;;;;;;;;;;7.80;99.90;8.40;99976.00;;;;342726;28;87168;-89
2023/01/13 00:28:57;;;;;;;;;;;7.80;99.90;8.40;99968.00;;;;343028;28;90846;-89
2023/01/13 00:29:09;;;;;;;;;;;7.80;99.90;8.40;99979.00;;;;341259;28;88550;-89
2023/01/13 00:29:21;;;;;;;;;;;7.80;99.90;8.40;99967.00;;;;343330;28;88503;-90
2023/01/13 00:29:33;;;;;;;;;;;7.80;99.90;8.30;99971.00;;;;343044;28;87090;-89
2023/01/13 00:29:44;;;;;;;;;;;7.80;99.90;8.30;99969.00;;;;341726;28;91057;-89
2023/01/13 00:29:56;;;;;;;;;;;7.80;99.90;8.40;99966.00;;;;340321;28;86222;-89
2023/01/13 00:30:08;;;;;;;;;;;7.80;99.90;8.40;99959.00;;;;340613;28;87864;-89
2023/01/13 00:30:20;;;;;;;;;;;7.80;99.90;8.40;99971.00;;;;338947;28;87990;-90
2023/01/13 00:30:32;;;;;;;;;;;7.80;99.90;8.30;99967.00;;;;340564;28;87355;-89
2023/01/13 00:30:44;;;;;;;;;;;7.80;99.90;8.40;99955.00;;;;341684;28;87035;-88
2023/01/13 00:31:03;;;;;;;;;;;7.80;99.90;8.40;99966.00;;;;341891;28;88875;-89
2023/01/13 00:31:19;;;;;;;;;;;7.80;99.90;8.40;99961.00;;;;343028;28;86009;-89
2023/01/13 00:31:31;;;;;;;;;;;7.80;99.90;8.30;99958.00;;;;344632;28;89618;-89
2023/01/13 00:31:42;;;;;;;;;;;7.80;99.90;8.40;99952.00;;;;342998;28;86897;-89
2023/01/13 00:31:54;;;;;;;;;;;7.80;99.90;8.40;99968.00;;;;343172;28;91320;-89
2023/01/13 00:32:06;;;;;;;;;;;7.80;99.90;8.40;99957.00;;;;343018;28;86080;-89
2023/01/13 00:32:18;;;;;;;;;;;7.80;99.90;8.30;99962.00;;;;344234;28;86987;-90
2023/01/13 00:32:29;;;;;;;;;;;7.80;99.90;8.20;99961.00;;;;344310;28;86993;-89
2023/01/13 00:32:41;;;;;;;;;;;7.80;99.90;8.20;99955.00;;;;343217;28;90453;-89
2023/01/13 00:32:53;;;;;;;;;;;7.80;99.90;8.20;99955.00;;;;344156;28;88218;-89
2023/01/13 00:33:05;;;;;;;;;;;7.80;99.90;8.20;99956.00;;;;341808;28;88436;-89
2023/01/13 00:33:17;;;;;;;;;;;7.80;99.90;8.20;99960.00;;;;342624;28;87204;-89
2023/01/13 00:33:28;;;;;;;;;;;7.80;99.90;8.20;99955.00;;;;341632;28;86152;-89
2023/01/13 00:33:41;;;;;;;;;;;7.80;99.90;8.30;99961.00;;;;342646;28;88397;-89
2023/01/13 00:33:55;;;;;;;;;;;7.80;99.90;8.40;99960.00;;;;341937;28;86797;-90
2023/01/13 00:34:06;;;;;;;;;;;7.80;99.90;8.40;99951.00;;;;341768;28;86144;-89
2023/01/13 00:34:18;;;;;;;;;;;7.80;99.90;8.30;99954.00;;;;341695;28;90651;-89
2023/01/13 00:34:30;;;;;;;;;;;7.80;99.90;8.30;99953.00;;;;341753;28;87078;-89
2023/01/13 00:34:42;;;;;;;;;;;7.80;99.90;8.20;99959.00;;;;344291;28;89136;-89
2023/01/13 00:34:54;;;;;;;;;;;7.80;99.90;8.20;99956.00;;;;344450;28;86929;-89
2023/01/13 00:35:06;;;;;;;;;;;7.80;99.90;8.20;99954.00;;;;343290;28;90611;-89
2023/01/13 00:35:18;;;;;;;;;;;7.80;99.90;8.20;99956.00;;;;341469;28;88157;-89
2023/01/13 00:35:30;;;;;;;;;;;7.80;99.90;8.30;99956.00;;;;343398;28;87700;-89
2023/01/13 00:35:41;;;;;;;;;;;7.80;99.90;8.30;99951.00;;;;343046;28;86143;-89
2023/01/13 00:35:57;;;;;;;;;;;7.80;99.90;8.30;99965.00;;;;340694;28;88957;-89
2023/01/13 00:36:11;;;;;;;;;;;7.80;99.90;8.20;99962.00;;;;342911;28;88448;-89
2023/01/13 00:36:23;;;;;;;;;;;7.80;99.90;8.30;99962.00;;;;340667;28;86283;-90
2023/01/13 00:36:35;;;;;;;;;;;7.80;99.90;8.30;99958.00;;;;339116;28;86088;-89
2023/01/13 00:36:46;;;;;;;;;;;7.80;99.90;8.30;99964.00;;;;342034;28;87691;-89
2023/01/13 00:36:58;;;;;;;;;;;7.80;99.90;8.20;99967.00;;;;340326;28;86903;-89
2023/01/13 00:37:13;;;;;;;;;;;7.80;99.90;8.20;99961.00;;;;340621;28;88464;-89
2023/01/13 00:37:25;;;;;;;;;;;7.80;99.90;8.20;99959.00;;;;341311;28;88123;-89
2023/01/13 00:37:37;;;;;;;;;;;7.80;99.90;8.20;99963.00;;;;340539;28;88686;-90
2023/01/13 00:37:49;;;;;;;;;;;7.80;99.90;8.20;99960.00;;;;342884;28;87102;-89
2023/01/13 00:38:01;;;;;;;;;;;7.80;99.90;8.20;99967.00;;;;343467;28;87786;-89
2023/01/13 00:38:12;;;;;;;;;;;7.80;99.90;8.20;99963.00;;;;342872;28;87856;-89
2023/01/13 00:38:24;;;;;;;;;;;7.80;99.90;8.30;99962.00;;;;343157;28;87762;-90
2023/01/13 00:38:37;;;;;;;;;;;7.80;99.90;8.20;99961.00;;;;341477;28;87022;-90
2023/01/13 00:38:49;;;;;;;;;;;7.80;99.90;8.20;99963.00;;;;343022;28;89754;-89
2023/01/13 00:39:02;;;;;;;;;;;7.80;99.90;8.20;99959.00;;;;341181;28;86222;-89
2023/01/13 00:39:14;;;;;;;;;;;7.80;99.90;8.20;99957.00;;;;341691;28;90128;-89
2023/01/13 00:39:26;;;;;;;;;;;7.70;99.90;8.20;99971.00;;;;340279;28;86957;-89
2023/01/13 00:39:37;;;;;;;;;;;7.80;99.90;8.20;99966.00;;;;342925;28;91294;-89
2023/01/13 00:39:50;;;;;;;;;;;7.80;99.90;8.20;99958.00;;;;344115;28;87644;-89
2023/01/13 00:40:03;;;;;;;;;;;7.80;99.90;8.30;99962.00;;;;343236;28;88884;-89
2023/01/13 00:40:15;;;;;;;;;;;7.80;99.90;8.30;99961.00;;;;343043;28;86372;-89
2023/01/13 00:40:27;;;;;;;;;;;7.80;99.90;8.30;99962.00;;;;342898;28;88973;-89
2023/01/13 00:40:39;;;;;;;;;;;7.80;99.90;8.30;99966.00;;;;343072;28;86852;-89
2023/01/13 00:40:57;;;;;;;;;;;7.80;99.90;8.30;99964.00;;;;341650;28;90940;-89
2023/01/13 00:41:10;;;;;;;;;;;7.70;99.90;8.40;99972.00;;;;341577;28;86174;-89
2023/01/13 00:41:23;;;;;;;;;;;7.80;99.90;8.40;99960.00;;;;341794;28;88300;-89
2023/01/13 00:43:22;;;;;;;;;;;7.80;99.90;8.40;99957.00;;;;341906;28;88945;-89
2023/01/13 00:43:34;;;;;;;;;;;7.80;99.90;8.40;99957.00;;;;339050;28;86207;-89
2023/01/13 00:43:46;;;;;;;;;;;7.80;99.90;8.50;99953.00;;;;340512;28;85900;-89
2023/01/13 00:43:58;;;;;;;;;;;7.80;99.90;8.50;99958.00;;;;341637;28;86847;-89
2023/01/13 00:44:10;;;;;;;;;;;7.80;99.90;8.50;99957.00;;;;341753;28;89561;-89
2023/01/13 00:44:21;;;;;;;;;;;7.80;99.90;8.40;99954.00;;;;338935;28;87001;-89
2023/01/13 00:44:33;;;;;;;;;;;7.80;99.90;8.40;99956.00;;;;343153;28;91731;-89
2023/01/13 00:44:45;;;;;;;;;;;7.80;99.90;8.40;99956.00;;;;341474;28;87078;-89
2023/01/13 00:44:57;;;;;;;;;;;7.80;99.90;8.40;99961.00;;;;341762;28;88861;-90
2023/01/13 00:45:09;;;;;;;;;;;7.80;99.90;8.30;99949.00;;;;343033;28;87071;-88
2023/01/13 00:45:21;;;;;;;;;;;7.80;99.90;8.40;99946.00;;;;343319;28;87710;-89
2023/01/13 00:45:33;;;;;;;;;;;7.80;99.90;8.40;99953.00;;;;341439;28;86424;-88
2023/01/13 00:45:44;;;;;;;;;;;7.80;99.90;8.40;99942.00;;;;344277;28;86556;-89
2023/01/13 00:45:56;;;;;;;;;;;7.80;99.90;8.30;99943.00;;;;343040;28;87151;-89
2023/01/13 00:46:09;;;;;;;;;;;7.80;99.90;8.40;99948.00;;;;341765;28;90432;-88
2023/01/13 00:46:21;;;;;;;;;;;7.80;99.90;8.40;99945.00;;;;340227;28;87060;-89
2023/01/13 00:46:33;;;;;;;;;;;7.80;99.90;8.40;99950.00;;;;341915;28;88057;-89
2023/01/13 00:46:45;;;;;;;;;;;7.80;99.90;8.30;99944.00;;;;341701;28;86320;-89
2023/01/13 00:46:57;;;;;;;;;;;7.80;99.90;8.30;99949.00;;;;340314;28;87789;-89
2023/01/13 00:47:09;;;;;;;;;;;7.80;99.90;8.40;99940.00;;;;344100;28;86946;-88
2023/01/13 00:47:22;;;;;;;;;;;7.80;99.90;8.40;99947.00;;;;341867;28;88339;-89
2023/01/13 00:47:33;;;;;;;;;;;7.90;99.90;8.50;99950.00;;;;341700;28;86188;-89
2023/01/13 00:47:45;;;;;;;;;;;7.90;99.90;8.50;99944.00;;;;344412;28;88447;-89
2023/01/13 00:47:57;;;;;;;;;;;7.90;99.90;8.40;99945.00;;;;344144;28;87286;-89
2023/01/13 00:48:09;;;;;;;;;;;7.90;99.90;8.40;99945.00;;;;343058;28;88823;-88
2023/01/13 00:48:22;;;;;;;;;;;7.80;99.90;8.40;99952.00;;;;341385;28;87170;-89
2023/01/13 00:48:34;;;;;;;;;;;7.90;99.90;8.30;99941.00;;;;341923;28;87730;-90
2023/01/13 00:48:46;;;;;;;;;;;7.90;99.90;8.40;99947.00;;;;342959;28;86623;-89
2023/01/13 00:48:57;;;;;;;;;;;7.90;99.90;8.40;99947.00;;;;344560;28;86461;-89
2023/01/13 00:49:09;;;;;;;;;;;7.90;99.90;8.40;99940.00;;;;341752;28;85996;-89
2023/01/13 00:49:21;;;;;;;;;;;7.90;99.90;8.50;99937.00;;;;341858;28;87168;-89
2023/01/13 00:49:32;;;;;;;;;;;7.90;99.90;8.50;99939.00;;;;340247;28;86131;-89
2023/01/13 00:49:44;;;;;;;;;;;7.90;99.90;8.40;99944.00;;;;342835;28;90291;-90
2023/01/13 00:49:56;;;;;;;;;;;7.90;99.90;8.40;99946.00;;;;341013;28;87103;-89
2023/01/13 00:50:09;;;;;;;;;;;7.90;99.90;8.40;99937.00;;;;341721;28;89555;-89
2023/01/13 00:50:21;;;;;;;;;;;7.90;99.90;8.40;99931.00;;;;343980;28;87380;-88
2023/01/13 00:50:32;;;;;;;;;;;7.90;99.90;8.50;99937.00;;;;343232;28;87430;-89
2023/01/13 00:50:44;;;;;;;;;;;7.90;99.90;8.50;99937.00;;;;342790;28;87843;-89
2023/01/13 00:50:57;;;;;;;;;;;7.90;99.90;8.50;99935.00;;;;341801;28;88899;-89
2023/01/13 00:51:15;;;;;;;;;;;7.90;99.90;8.50;99939.00;;;;340369;28;86070;-89
2023/01/13 00:51:27;;;;;;;;;;;7.90;99.90;8.40;99942.00;;;;343313;28;88597;-89
2023/01/13 00:51:39;;;;;;;;;;;7.90;99.90;8.50;99942.00;;;;342611;28;86391;-90
2023/01/13 00:51:51;;;;;;;;;;;7.90;99.90;8.40;99938.00;;;;341874;28;89551;-89
2023/01/13 00:52:03;;;;;;;;;;;7.90;99.90;8.40;99933.00;;;;341425;28;87757;-89
2023/01/13 00:52:15;;;;;;;;;;;7.90;99.90;8.40;99941.00;;;;340614;28;88131;-89
2023/01/13 00:52:27;;;;;;;;;;;7.90;99.90;8.40;99941.00;;;;338943;28;86264;-90
2023/01/13 00:52:38;;;;;;;;;;;7.90;99.90;8.40;99939.00;;;;339354;28;85983;-89
2023/01/13 00:52:53;;;;;;;;;;;7.90;99.90;8.40;99940.00;;;;342562;28;87015;-89
2023/01/13 00:53:04;;;;;;;;;;;7.90;99.90;8.40;99937.00;;;;340438;28;88924;-89
2023/01/13 00:53:17;;;;;;;;;;;7.90;99.90;8.40;99941.00;;;;341603;28;86882;-88
2023/01/13 00:53:32;;;;;;;;;;;7.90;99.90;8.30;99939.00;;;;341750;28;89241;-89
2023/01/13 00:53:45;;;;;;;;;;;7.90;99.90;8.30;99943.00;;;;342711;28;86756;-89
2023/01/13 00:53:57;;;;;;;;;;;7.90;99.90;8.30;99940.00;;;;339229;28;86358;-89
2023/01/13 00:54:09;;;;;;;;;;;7.90;99.90;8.30;99944.00;;;;340319;28;86865;-89
2023/01/13 00:54:21;;;;;;;;;;;7.90;99.90;8.30;99948.00;;;;340272;28;90459;-89
2023/01/13 00:54:33;;;;;;;;;;;7.90;99.90;8.30;99945.00;;;;339044;28;86111;-89
2023/01/13 00:54:44;;;;;;;;;;;7.90;99.90;8.30;99945.00;;;;340496;28;88193;-90
2023/01/13 00:54:56;;;;;;;;;;;7.90;99.90;8.30;99942.00;;;;340211;28;86901;-89
2023/01/13 00:55:08;;;;;;;;;;;7.90;99.90;8.30;99946.00;;;;341622;28;91417;-89
2023/01/13 00:55:20;;;;;;;;;;;7.90;99.90;8.30;99949.00;;;;341411;28;87120;-89
2023/01/13 00:55:32;;;;;;;;;;;7.90;99.90;8.40;99940.00;;;;341993;28;87959;-89
2023/01/13 00:55:43;;;;;;;;;;;7.90;99.90;8.30;99944.00;;;;341193;28;85517;-89
2023/01/13 00:55:59;;;;;;;;;;;7.90;99.90;8.30;99947.00;;;;343099;28;88278;-89
2023/01/13 00:56:13;;;;;;;;;;;7.80;99.90;8.40;99943.00;;;;340446;28;86634;-89
2023/01/13 00:56:25;;;;;;;;;;;7.90;99.90;8.30;99943.00;;;;343045;28;89894;-89
2023/01/13 00:56:51;;;;;;;;;;;7.80;99.90;8.40;99939.00;;;;344295;28;86857;-89
2023/01/13 00:57:03;;;;;;;;;;;7.90;99.90;8.40;99941.00;;;;340317;28;90277;-89
2023/01/13 00:57:15;;;;;;;;;;;7.80;99.90;8.30;99942.00;;;;343126;28;86518;-89
2023/01/13 00:57:27;;;;;;;;;;;7.80;99.90;8.30;99938.00;;;;341664;28;89441;-89
2023/01/13 00:57:38;;;;;;;;;;;7.80;99.90;8.40;99937.00;;;;343042;28;86878;-89
2023/01/13 00:57:50;;;;;;;;;;;7.80;99.90;8.40;99936.00;;;;340173;28;89570;-89
2023/01/13 00:58:02;;;;;;;;;;;7.80;99.90;8.40;99940.00;;;;341329;28;88577;-89
2023/01/13 00:58:14;;;;;;;;;;;7.80;99.90;8.30;99935.00;;;;341602;28;87005;-89
2023/01/13 00:58:26;;;;;;;;;;;7.80;99.90;8.40;99930.00;;;;341573;28;87074;-89
2023/01/13 00:58:38;;;;;;;;;;;7.90;99.90;8.50;99929.00;;;;341840;28;91472;-89
2023/01/13 00:58:50;;;;;;;;;;;7.80;99.90;8.50;99922.00;;;;342698;28;86653;-89
2023/01/13 00:59:02;;;;;;;;;;;7.90;99.90;8.50;99929.00;;;;344370;28;88827;-89
2023/01/13 00:59:14;;;;;;;;;;;7.90;99.90;8.50;99929.00;;;;341417;28;87075;-88
2023/01/13 00:59:26;;;;;;;;;;;7.90;99.90;8.50;99931.00;;;;343175;28;89853;-89
2023/01/13 00:59:38;;;;;;;;;;;7.90;99.90;8.50;99931.00;;;;341597;28;86874;-89
2023/01/13 00:59:50;;;;;;;;;;;7.90;99.90;8.50;99927.00;;;;344598;28;88658;-89
2023/01/13 01:00:02;;;;;;;;;;;7.90;99.90;8.50;99927.00;;;;341396;28;87895;-89
2023/01/13 01:00:14;;;;;;;;;;;7.90;99.90;8.40;99926.00;;;;340585;28;88198;-89
2023/01/13 01:00:26;;;;;;;;;;;7.90;99.90;8.40;99923.00;;;;338838;28;87064;-89
2023/01/13 01:00:38;;;;;;;;;;;7.90;99.90;8.50;99927.00;;;;341712;28;90729;-89
2023/01/13 01:00:50;;;;;;;;;;;7.90;99.90;8.50;99929.00;;;;337660;28;86888;-89
2023/01/13 01:01:06;;;;;;;;;;;7.90;99.90;8.50;99922.00;;;;340563;28;87041;-89
2023/01/13 01:01:20;;;;;;;;;;;7.90;99.90;8.60;99924.00;;;;341576;28;86961;-89
2023/01/13 01:01:32;;;;;;;;;;;7.90;99.90;8.50;99923.00;;;;340413;28;90634;-89
2023/01/13 01:01:46;;;;;;;;;;;7.90;99.90;8.40;99928.00;;;;339803;28;86827;-88
2023/01/13 01:01:58;;;;;;;;;;;7.90;99.90;8.40;99927.00;;;;341759;28;90723;-89
2023/01/13 01:02:10;;;;;;;;;;;7.90;99.90;8.50;99919.00;;;;340417;28;85306;-89
2023/01/13 01:02:22;;;;;;;;;;;7.90;99.90;8.50;99936.00;;;;339142;28;87932;-88
2023/01/13 01:02:34;;;;;;;;;;;7.90;99.90;8.50;99918.00;;;;339960;28;86120;-89
2023/01/13 01:02:46;;;;;;;;;;;7.90;99.90;8.40;99926.00;;;;341815;28;89085;-89
2023/01/13 01:02:58;;;;;;;;;;;7.90;99.90;8.40;99924.00;;;;338802;28;87028;-89
2023/01/13 01:03:11;;;;;;;;;;;7.90;99.90;8.50;99930.00;;;;339192;28;87390;-89
2023/01/13 01:03:22;;;;;;;;;;;7.90;99.90;8.50;99930.00;;;;342586;28;86887;-89
2023/01/13 01:03:34;;;;;;;;;;;7.90;99.90;8.50;99925.00;;;;343231;28;89870;-89
2023/01/13 01:03:47;;;;;;;;;;;7.90;99.90;8.50;99919.00;;;;341488;28;87446;-89
2023/01/13 01:03:59;;;;;;;;;;;7.90;99.90;8.40;99924.00;;;;340619;28;87739;-89
2023/01/13 01:04:11;;;;;;;;;;;7.90;99.90;8.40;99917.00;;;;344282;28;86603;-89
2023/01/13 01:04:23;;;;;;;;;;;7.90;99.90;8.40;99929.00;;;;344537;28;87849;-89